This is the latest recevied weather packets stored in our database for station/object JA3QOS-13. If no packets are shown the sender has not sent any weather packets the latest 10 day(s).
| Time | Temp. | Humidity | Pressure | Rain* | Wind** | Luminosity | Snow |
|---|---|---|---|---|---|---|---|
| 1788159604 | 88° F | 75% | 759.5 mmHg | 0 in | - | - | - |
| 1788157803 | 89° F | 76% | 759.4 mmHg | 0 in | - | - | - |
| 1788156003 | 90° F | 74% | 759.3 mmHg | 0 in | - | - | - |
| 1788154204 | 92° F | 66% | 759.4 mmHg | 0 in | - | - | - |
| 1788152403 | 90° F | 68% | 759.4 mmHg | 0 in | - | - | - |
| 1788150604 | 90° F | 69% | 759.7 mmHg | 0 in | - | - | - |
| 1788148803 | 90° F | 73% | 759.8 mmHg | 0 in | - | - | - |
| 1788147003 | 90° F | 68% | 760 mmHg | 0 in | - | - | - |
| 1788145204 | 89° F | 75% | 760.3 mmHg | 0 in | - | - | - |
| 1788143403 | 87° F | 75% | 760.2 mmHg | 0 in | - | - | - |
| 1788141603 | 88° F | 77% | 760.5 mmHg | 0 in | - | - | - |
| 1788139804 | 85° F | 78% | 760.4 mmHg | 0 in | - | - | - |
| 1788138003 | 83° F | 83% | 760.3 mmHg | 0 in | - | - | - |
| 1788136203 | 82° F | 88% | 760.3 mmHg | 0 in | - | - | - |
| 1788134409 | 79° F | 93% | 760 mmHg | 0 in | - | - | - |
| 1788132604 | 77° F | 98% | 760.1 mmHg | 0 in | - | - | - |
| 1788130804 | 75° F | 99% | 760 mmHg | 0 in | - | - | - |
| 1788129004 | 74° F | 99% | 759.8 mmHg | 0 in | - | - | - |
| 1788127203 | 73° F | 99% | 759.9 mmHg | 0 in | - | - | - |
| 1788125403 | 73° F | 99% | 759.7 mmHg | 0 in | - | - | - |
| 1788123604 | 72° F | 99% | 759.7 mmHg | 0 in | - | - | - |
| 1788121803 | 72° F | 99% | 759.6 mmHg | 0 in | - | - | - |
| 1788120004 | 73° F | 99% | 759.2 mmHg | 0 in | - | - | - |
| 1788118203 | 72° F | 99% | 759.1 mmHg | 0 in | - | - | - |
| 1788116403 | 72° F | 99% | 759.1 mmHg | 0 in | - | - | - |
* Rain latest hour (hover to see other rain measurements)
** Current wind speed in m/s (hover to see current wind gust speed)